Hurst, Illinois
Current Conditions -  °F | °C
As of 11:52 AM on Sunday 25 Jan 2015 (Local Time) from KMDH Reporting Station
Light Rain Light Rain  
Wind Chill:   Ceiling: 800
Heat Index:   Visibility: 4mi
Dew Point:   Wind: 7mph
Humidity: 93%   Direction: 210°SSW
Pressure: 29.59"   Gusts: NA
Location:  37.83°N, 89.14°W
Report Text: KMDH 251752Z AUTO 21006KT 4SM -RA BR BKN008 BKN021 OVC039 06/05 A2959 RMK AO2 SLP021 P0005 60014 T00610050 10061 20044 58013
Loading
Personal Weather Stations






























Interactive Weather Map New forecast layout! Learn more

10-Day Weather Forecast

Advertisements
Track Severe Weather on mobile